createdAt,value
2022-10-30T00:03:51.564Z,17.48
2022-10-30T00:07:56.091Z,16.10
2022-10-30T00:11:57.912Z,16.20
2022-10-30T00:15:59.528Z,17.13
2022-10-30T00:20:01.192Z,16.35
2022-10-30T00:24:02.746Z,15.77
2022-10-30T00:28:06.172Z,16.25
2022-10-30T00:32:07.962Z,16.05
2022-10-30T00:36:09.651Z,15.23
2022-10-30T00:40:16.140Z,15.13
2022-10-30T00:44:45.882Z,14.77
2022-10-30T00:48:56.662Z,14.77
2022-10-30T00:53:05.507Z,15.05
2022-10-30T00:57:08.123Z,15.73
2022-10-30T01:01:14.241Z,14.05
2022-10-30T01:05:18.807Z,13.82
2022-10-30T01:09:22.483Z,15.38
2022-10-30T01:13:24.564Z,15.60
2022-10-30T01:17:57.459Z,15.68
2022-10-30T01:22:14.715Z,15.93
2022-10-30T01:26:44.145Z,16.50
2022-10-30T01:30:54.811Z,15.88
2022-10-30T01:35:05.388Z,14.68
2022-10-30T01:39:14.095Z,15.90
2022-10-30T01:43:16.372Z,14.48
2022-10-30T01:47:32.817Z,13.82
2022-10-30T01:51:55.946Z,14.48
2022-10-30T01:56:16.236Z,15.00
2022-10-30T02:00:20.320Z,18.15
2022-10-30T02:04:23.535Z,14.45
2022-10-30T02:08:27.232Z,16.75
2022-10-30T02:12:29.586Z,15.57
2022-10-30T02:16:35.854Z,14.77
2022-10-30T02:20:37.709Z,13.52
2022-10-30T02:24:39.251Z,14.50
2022-10-30T02:28:41.842Z,14.70
2022-10-30T02:32:43.506Z,15.02
2022-10-30T02:36:45.125Z,15.02
2022-10-30T02:40:46.804Z,14.38
2022-10-30T02:44:48.297Z,14.25
2022-10-30T02:48:50.458Z,14.63
2022-10-30T02:52:51.996Z,13.82
2022-10-30T02:56:53.466Z,14.98
2022-10-30T03:00:56.387Z,14.55
2022-10-30T03:04:57.975Z,14.23
2022-10-30T03:09:00.555Z,14.50
2022-10-30T03:13:02.223Z,14.80
2022-10-30T03:17:07.529Z,13.57
2022-10-30T03:21:14.402Z,13.55
2022-10-30T03:25:15.964Z,13.13
2022-10-30T03:29:18.545Z,13.48
2022-10-30T03:33:20.285Z,13.38
2022-10-30T03:37:21.914Z,14.00
2022-10-30T03:41:23.526Z,13.93
2022-10-30T03:45:25.178Z,13.23
2022-10-30T03:49:26.987Z,14.50
2022-10-30T03:53:32.274Z,13.93
2022-10-30T03:57:37.209Z,12.52
2022-10-30T04:01:45.044Z,13.77
2022-10-30T04:05:46.704Z,13.60
2022-10-30T04:09:48.442Z,13.55
2022-10-30T04:13:49.982Z,12.32
2022-10-30T04:17:52.125Z,12.75
2022-10-30T04:21:54.881Z,13.15
2022-10-30T04:25:59.636Z,14.23
2022-10-30T04:30:01.167Z,14.75
2022-10-30T04:34:03.866Z,14.68
2022-10-30T04:38:11.554Z,13.90
2022-10-30T04:42:13.355Z,13.80
2022-10-30T04:46:18.008Z,14.80
2022-10-30T04:50:19.657Z,13.68
2022-10-30T04:54:22.038Z,14.25
2022-10-30T04:58:23.708Z,13.70
2022-10-30T05:06:45.519Z,14.63
2022-10-30T05:10:50.565Z,12.48
2022-10-30T05:14:52.347Z,13.50
2022-10-30T05:18:53.859Z,14.60
2022-10-30T05:22:58.209Z,13.43
2022-10-30T05:27:00.787Z,14.13
2022-10-30T05:31:04.707Z,14.02
2022-10-30T05:35:33.631Z,12.38
2022-10-30T05:39:35.558Z,13.30
2022-10-30T05:43:39.684Z,13.85
2022-10-30T05:47:42.963Z,13.93
2022-10-30T05:51:46.062Z,12.65
2022-10-30T05:55:50.034Z,12.65
2022-10-30T05:59:56.308Z,13.30
2022-10-30T06:03:57.969Z,13.25
2022-10-30T06:08:00.275Z,12.98
2022-10-30T06:12:02.619Z,13.20
2022-10-30T06:28:17.063Z,12.93
2022-10-30T06:32:18.705Z,12.05
2022-10-30T06:36:21.175Z,12.15
2022-10-30T06:40:23.585Z,11.85
2022-10-30T06:44:52.241Z,13.18
2022-10-30T06:48:54.020Z,12.68
2022-10-30T06:52:55.807Z,11.77
2022-10-30T06:56:57.821Z,11.63
2022-10-30T07:01:08.666Z,12.18
2022-10-30T07:05:16.239Z,12.77
2022-10-30T07:09:18.262Z,12.73
2022-10-30T07:13:20.427Z,12.65
2022-10-30T07:17:28.231Z,12.55
2022-10-30T07:21:34.192Z,13.00
2022-10-30T07:25:39.643Z,14.43
2022-10-30T07:29:53.707Z,11.68
2022-10-30T07:34:00.699Z,12.13
2022-10-30T07:38:35.445Z,12.40
2022-10-30T07:42:57.797Z,12.35
2022-10-30T07:47:07.295Z,13.38
2022-10-30T07:51:27.481Z,12.18
2022-10-30T07:55:30.003Z,12.73
2022-10-30T08:04:17.270Z,14.23
2022-10-30T08:08:19.224Z,12.30
2022-10-30T08:12:55.384Z,12.65
2022-10-30T08:16:56.934Z,12.55
2022-10-30T08:20:58.985Z,13.32
2022-10-30T08:25:00.625Z,12.82
2022-10-30T08:29:07.385Z,12.52
2022-10-30T08:33:15.252Z,12.70
2022-10-30T08:38:32.434Z,13.85
2022-10-30T08:42:53.523Z,13.18
2022-10-30T08:46:57.989Z,10.90
2022-10-30T08:51:01.165Z,11.32
2022-10-30T08:55:08.728Z,11.18
2022-10-30T08:59:11.007Z,11.43
2022-10-30T09:03:13.198Z,11.18
2022-10-30T09:07:37.319Z,12.13
2022-10-30T09:11:59.486Z,12.10
2022-10-30T09:16:03.210Z,11.32
2022-10-30T09:20:08.651Z,10.70
2022-10-30T09:24:12.701Z,11.82
2022-10-30T09:28:34.295Z,10.52
2022-10-30T09:33:11.530Z,9.98
2022-10-30T09:37:36.780Z,10.57
2022-10-30T09:42:06.882Z,10.73
2022-10-30T09:46:37.560Z,11.32
2022-10-30T09:50:57.833Z,11.63
2022-10-30T09:55:20.560Z,11.95
2022-10-30T09:59:45.282Z,10.80
2022-10-30T10:04:20.958Z,11.48
2022-10-30T10:08:50.698Z,10.90
2022-10-30T10:13:30.962Z,11.07
2022-10-30T10:17:39.157Z,12.43
2022-10-30T10:21:46.531Z,10.45
2022-10-30T10:25:57.370Z,10.73
2022-10-30T10:30:11.673Z,10.05
2022-10-30T10:34:16.231Z,10.48
2022-10-30T10:38:17.914Z,10.75
2022-10-30T10:42:30.097Z,10.68
2022-10-30T10:46:41.967Z,9.77
2022-10-30T10:51:29.159Z,10.13
2022-10-30T10:55:36.628Z,11.07
2022-10-30T10:59:43.734Z,9.55
2022-10-30T11:04:03.961Z,10.93
2022-10-30T11:08:19.927Z,9.65
2022-10-30T11:12:30.974Z,11.02
2022-10-30T11:16:50.423Z,10.55
2022-10-30T11:25:26.815Z,10.07
2022-10-30T11:29:30.486Z,9.98
2022-10-30T11:33:32.268Z,10.25
2022-10-30T11:37:36.341Z,11.23
2022-10-30T11:41:39.202Z,11.15
2022-10-30T11:45:43.499Z,10.10
2022-10-30T11:49:53.806Z,11.27
2022-10-30T11:53:55.391Z,11.65
2022-10-30T11:57:59.028Z,10.45
2022-10-30T12:06:22.770Z,10.88
2022-10-30T12:10:30.119Z,10.40
2022-10-30T12:14:32.519Z,10.35
2022-10-30T12:18:34.861Z,11.18
2022-10-30T12:22:36.579Z,11.18
2022-10-30T12:26:39.819Z,11.30
2022-10-30T12:30:46.401Z,10.65
2022-10-30T12:34:59.411Z,10.88
2022-10-30T12:39:15.257Z,10.70
2022-10-30T12:43:23.942Z,10.85
2022-10-30T12:47:51.662Z,9.82
2022-10-30T12:52:04.541Z,10.55
2022-10-30T12:56:13.467Z,9.63
2022-10-30T13:00:17.275Z,10.20
2022-10-30T13:04:23.450Z,11.60
2022-10-30T13:08:41.549Z,10.43
2022-10-30T13:12:46.353Z,11.98
2022-10-30T13:16:51.540Z,11.63
2022-10-30T13:21:07.012Z,11.88
2022-10-30T13:25:44.678Z,11.50
2022-10-30T13:30:06.026Z,11.57
2022-10-30T13:34:10.770Z,12.75
2022-10-30T13:38:42.739Z,10.57
2022-10-30T13:42:56.979Z,11.18
2022-10-30T13:47:24.541Z,11.48
2022-10-30T13:51:40.711Z,10.95
2022-10-30T13:55:45.044Z,11.25
2022-10-30T14:00:00.523Z,11.13
2022-10-30T14:04:29.130Z,11.32
2022-10-30T14:08:52.044Z,11.05
2022-10-30T14:12:57.091Z,11.70
2022-10-30T14:17:10.100Z,11.48
2022-10-30T14:21:57.227Z,10.63
2022-10-30T14:26:22.173Z,11.38
2022-10-30T14:30:27.621Z,11.00
2022-10-30T14:34:56.837Z,12.10
2022-10-30T14:39:21.408Z,11.57
2022-10-30T14:43:41.554Z,11.95
2022-10-30T14:48:15.115Z,11.88
2022-10-30T14:52:47.224Z,11.57
2022-10-30T14:56:51.251Z,13.80
2022-10-30T15:01:30.651Z,11.98
2022-10-30T15:05:50.588Z,12.90
2022-10-30T15:10:19.742Z,11.85
2022-10-30T15:14:48.610Z,12.38
2022-10-30T15:19:06.161Z,12.63
2022-10-30T15:23:19.361Z,12.88
2022-10-30T15:27:24.298Z,12.38
2022-10-30T15:31:28.043Z,13.57
2022-10-30T15:35:29.697Z,13.50
2022-10-30T15:39:31.529Z,13.38
2022-10-30T15:43:37.402Z,13.63
2022-10-30T15:47:46.310Z,13.27
2022-10-30T15:51:48.126Z,13.43
2022-10-30T15:55:50.290Z,14.10
2022-10-30T15:59:57.868Z,12.45
2022-10-30T16:03:59.502Z,13.48
2022-10-30T16:08:03.066Z,12.30
2022-10-30T16:12:08.906Z,13.90
2022-10-30T16:16:26.279Z,12.50
2022-10-30T16:20:27.975Z,13.70
2022-10-30T16:24:34.112Z,13.63
2022-10-30T16:28:37.999Z,14.05
2022-10-30T16:32:41.052Z,16.38
2022-10-30T16:36:43.492Z,15.25
2022-10-30T16:40:45.866Z,14.95
2022-10-30T16:44:48.084Z,16.42
2022-10-30T16:48:59.550Z,16.27
2022-10-30T16:53:06.395Z,16.63
2022-10-30T16:57:26.611Z,16.65
2022-10-30T17:01:28.533Z,16.42
2022-10-30T17:05:33.900Z,16.35
2022-10-30T17:09:38.507Z,15.93
2022-10-30T17:13:56.139Z,14.68
2022-10-30T17:18:15.258Z,15.15
2022-10-30T17:22:20.380Z,15.98
2022-10-30T17:26:22.341Z,15.52
2022-10-30T17:30:34.703Z,17.15
2022-10-30T17:34:39.358Z,18.25
2022-10-30T17:38:40.931Z,18.55
2022-10-30T17:42:42.535Z,17.27
2022-10-30T17:46:44.235Z,18.05
2022-10-30T17:50:46.175Z,19.15
2022-10-30T17:54:47.751Z,17.70
2022-10-30T17:58:49.531Z,18.20
2022-10-30T18:02:51.229Z,18.05
2022-10-30T18:06:52.782Z,19.13
2022-10-30T18:10:54.447Z,18.50
2022-10-30T18:14:56.089Z,16.90
2022-10-30T18:18:59.121Z,18.77
2022-10-30T18:23:01.390Z,19.13
2022-10-30T18:27:04.600Z,18.58
2022-10-30T18:31:20.091Z,19.13
2022-10-30T18:35:22.264Z,18.13
2022-10-30T18:39:23.957Z,18.58
2022-10-30T18:43:25.599Z,18.15
2022-10-30T18:47:27.265Z,18.48
2022-10-30T18:51:29.124Z,18.02
2022-10-30T18:55:39.378Z,19.88
2022-10-30T18:59:41.116Z,20.73
2022-10-30T19:03:43.475Z,19.08
2022-10-30T19:07:45.301Z,18.48
2022-10-30T19:11:46.926Z,19.55
2022-10-30T19:15:52.154Z,19.17
2022-10-30T19:19:56.382Z,21.17
2022-10-30T19:24:02.383Z,19.77
2022-10-30T19:28:04.506Z,20.27
2022-10-30T19:32:06.319Z,21.02
2022-10-30T19:36:25.913Z,21.70
2022-10-30T19:40:32.190Z,21.52
2022-10-30T19:44:33.739Z,21.60
2022-10-30T19:52:59.459Z,19.77
2022-10-30T19:57:01.926Z,21.95
2022-10-30T20:01:03.808Z,21.40
2022-10-30T20:05:12.116Z,21.08
2022-10-30T20:09:14.077Z,22.38
2022-10-30T20:13:15.937Z,20.40
2022-10-30T20:17:17.515Z,20.17
2022-10-30T20:21:19.549Z,20.27
2022-10-30T20:25:22.399Z,20.17
2022-10-30T20:29:24.685Z,19.63
2022-10-30T20:33:29.126Z,20.15
2022-10-30T20:37:36.502Z,18.90
2022-10-30T20:41:40.432Z,20.10
2022-10-30T20:45:43.710Z,18.90
2022-10-30T20:49:45.437Z,20.38
2022-10-30T20:53:47.009Z,21.05
2022-10-30T20:57:48.685Z,19.88
2022-10-30T21:01:50.669Z,20.83
2022-10-30T21:06:00.899Z,19.98
2022-10-30T21:10:03.158Z,20.42
2022-10-30T21:14:04.779Z,20.23
2022-10-30T21:18:07.321Z,18.92
2022-10-30T21:22:11.296Z,20.40
2022-10-30T21:26:13.673Z,19.15
2022-10-30T21:30:15.262Z,20.45
2022-10-30T21:34:17.798Z,19.60
2022-10-30T21:38:19.431Z,20.23
2022-10-30T21:42:21.316Z,18.88
2022-10-30T21:46:25.101Z,19.33
2022-10-30T21:50:26.865Z,18.08
2022-10-30T21:54:28.538Z,20.45
2022-10-30T21:58:30.074Z,18.58
2022-10-30T22:02:31.608Z,18.38
2022-10-30T22:06:33.642Z,18.45
2022-10-30T22:10:35.137Z,18.90
2022-10-30T22:14:36.757Z,17.02
2022-10-30T22:18:38.697Z,16.90
2022-10-30T22:22:40.388Z,17.77
2022-10-30T22:26:41.935Z,17.75
2022-10-30T22:30:43.510Z,18.33
2022-10-30T22:34:45.095Z,18.17
2022-10-30T22:38:48.303Z,18.85
2022-10-30T22:42:49.882Z,19.02
2022-10-30T22:46:51.717Z,19.58
2022-10-30T22:50:59.491Z,18.88
2022-10-30T22:55:01.128Z,18.30
2022-10-30T22:59:05.474Z,18.90
2022-10-30T23:03:07.112Z,18.05
2022-10-30T23:07:08.814Z,20.25
2022-10-30T23:11:11.559Z,18.55
2022-10-30T23:15:13.204Z,17.45
2022-10-30T23:19:14.891Z,16.85
2022-10-30T23:23:16.527Z,17.27
2022-10-30T23:27:18.096Z,17.48
2022-10-30T23:31:24.503Z,16.98
2022-10-30T23:35:26.049Z,18.77
2022-10-30T23:39:29.260Z,17.73
2022-10-30T23:43:30.808Z,16.45
2022-10-30T23:47:32.499Z,17.23
2022-10-30T23:51:34.241Z,16.42
2022-10-30T23:55:35.835Z,17.70
2022-10-30T23:59:37.383Z,17.27
